createdAt,value
2023-05-21T00:00:06.405Z,1011.69
2023-05-21T00:01:06.362Z,1011.70
2023-05-21T00:02:06.362Z,1011.73
2023-05-21T00:03:06.453Z,1011.69
2023-05-21T00:04:06.342Z,1011.68
2023-05-21T00:05:06.346Z,1011.67
2023-05-21T00:06:06.339Z,1011.67
2023-05-21T00:07:06.312Z,1011.62
2023-05-21T00:08:06.307Z,1011.65
2023-05-21T00:09:06.304Z,1011.60
2023-05-21T00:10:06.276Z,1011.58
2023-05-21T00:11:06.267Z,1011.56
2023-05-21T00:12:06.246Z,1011.60
2023-05-21T00:13:06.234Z,1011.66
2023-05-21T00:14:06.247Z,1011.68
2023-05-21T00:15:06.209Z,1011.68
2023-05-21T00:16:06.225Z,1011.66
2023-05-21T00:17:06.231Z,1011.68
2023-05-21T00:18:06.250Z,1011.64
2023-05-21T00:19:06.204Z,1011.65
2023-05-21T00:20:06.165Z,1011.64
2023-05-21T00:21:06.147Z,1011.66
2023-05-21T00:22:06.142Z,1011.61
2023-05-21T00:23:06.211Z,1011.62
2023-05-21T00:24:06.126Z,1011.64
2023-05-21T00:25:06.108Z,1011.58
2023-05-21T00:26:06.107Z,1011.55
2023-05-21T00:27:06.088Z,1011.57
2023-05-21T00:28:06.074Z,1011.47
2023-05-21T00:29:06.081Z,1011.49
2023-05-21T00:30:06.055Z,1011.48
2023-05-21T00:31:06.035Z,1011.48
2023-05-21T00:32:06.174Z,1011.48
2023-05-21T00:33:06.068Z,1011.49
2023-05-21T00:34:06.003Z,1011.48
2023-05-21T00:35:06.019Z,1011.46
2023-05-21T00:36:05.976Z,1011.46
2023-05-21T00:37:05.971Z,1011.44
2023-05-21T00:38:05.960Z,1011.48
2023-05-21T00:39:05.936Z,1011.46
2023-05-21T00:40:05.934Z,1011.42
2023-05-21T00:41:05.989Z,1011.47
2023-05-21T00:42:05.924Z,1011.47
2023-05-21T00:43:05.895Z,1011.44
2023-05-21T00:44:05.877Z,1011.41
2023-05-21T00:45:05.886Z,1011.38
2023-05-21T00:46:05.929Z,1011.47
2023-05-21T00:47:05.878Z,1011.45
2023-05-21T00:48:05.855Z,1011.46
2023-05-21T00:49:05.831Z,1011.39
2023-05-21T00:50:05.816Z,1011.43
2023-05-21T00:51:05.813Z,1011.39
2023-05-21T00:52:05.833Z,1011.38
2023-05-21T00:53:05.789Z,1011.35
2023-05-21T00:54:05.769Z,1011.29
2023-05-21T00:55:05.768Z,1011.32
2023-05-21T00:56:05.750Z,1011.29
2023-05-21T00:57:05.731Z,1011.30
2023-05-21T00:58:05.761Z,1011.27
2023-05-21T00:59:05.763Z,1011.30
2023-05-21T01:00:05.709Z,1011.28
2023-05-21T01:01:05.733Z,1011.24
2023-05-21T01:02:05.719Z,1011.26
2023-05-21T01:03:05.739Z,1011.20
2023-05-21T01:04:05.691Z,1011.19
2023-05-21T01:05:05.656Z,1011.20
2023-05-21T01:06:05.642Z,1011.21
2023-05-21T01:07:05.631Z,1011.24
2023-05-21T01:08:05.649Z,1011.14
2023-05-21T01:09:05.656Z,1011.17
2023-05-21T01:10:05.597Z,1011.20
2023-05-21T01:11:05.586Z,1011.18
2023-05-21T01:12:05.575Z,1011.18
2023-05-21T01:13:05.555Z,1011.16
2023-05-21T01:14:05.600Z,1011.16
2023-05-21T01:15:05.530Z,1011.14
2023-05-21T01:16:05.533Z,1011.14
2023-05-21T01:17:05.685Z,1011.09
2023-05-21T01:18:05.535Z,1011.09
2023-05-21T01:19:05.658Z,1011.14
2023-05-21T01:20:06.850Z,1011.12
2023-05-21T01:21:05.487Z,1011.06
2023-05-21T01:22:05.469Z,1011.08
2023-05-21T01:23:05.448Z,1011.06
2023-05-21T01:24:05.506Z,1011.07
2023-05-21T01:25:05.453Z,1011.06
2023-05-21T01:26:05.456Z,1011.03
2023-05-21T01:27:05.420Z,1011.03
2023-05-21T01:28:05.396Z,1011.02
2023-05-21T01:29:05.382Z,1010.99
2023-05-21T01:30:05.367Z,1010.98
2023-05-21T01:31:05.379Z,1010.99
2023-05-21T01:32:05.375Z,1010.97
2023-05-21T01:33:05.437Z,1010.93
2023-05-21T01:34:05.449Z,1010.96
2023-05-21T01:35:05.383Z,1010.91
2023-05-21T01:36:05.308Z,1010.95
2023-05-21T01:37:05.340Z,1010.97
2023-05-21T01:38:05.316Z,1010.96
2023-05-21T01:39:05.271Z,1010.99
2023-05-21T01:40:05.276Z,1010.99
2023-05-21T01:41:05.256Z,1010.98
2023-05-21T01:42:05.276Z,1011.01
2023-05-21T01:43:05.248Z,1010.98
2023-05-21T01:44:05.233Z,1010.93
2023-05-21T01:45:05.208Z,1010.92
2023-05-21T01:46:05.232Z,1010.93
2023-05-21T01:47:05.247Z,1010.90
2023-05-21T01:48:05.232Z,1010.85
2023-05-21T01:49:05.168Z,1010.94
2023-05-21T01:50:05.154Z,1010.90
2023-05-21T01:51:05.135Z,1010.93
2023-05-21T01:52:05.200Z,1010.92
2023-05-21T01:53:05.122Z,1010.95
2023-05-21T01:54:05.120Z,1010.95
2023-05-21T01:55:05.112Z,1010.95
2023-05-21T01:56:05.087Z,1010.95
2023-05-21T01:57:05.073Z,1010.96
2023-05-21T01:58:05.070Z,1010.95
2023-05-21T01:59:05.069Z,1011.00
2023-05-21T02:00:05.041Z,1010.96
2023-05-21T02:01:05.030Z,1010.96
2023-05-21T02:02:05.050Z,1010.97
2023-05-21T02:03:05.107Z,1010.97
2023-05-21T02:04:05.057Z,1010.96
2023-05-21T02:05:04.981Z,1010.95
2023-05-21T02:06:04.974Z,1010.97
2023-05-21T02:07:04.958Z,1010.90
2023-05-21T02:08:04.975Z,1010.86
2023-05-21T02:09:04.965Z,1010.88
2023-05-21T02:10:04.945Z,1010.89
2023-05-21T02:11:04.925Z,1010.85
2023-05-21T02:12:04.905Z,1010.88
2023-05-21T02:13:04.899Z,1010.84
2023-05-21T02:14:04.905Z,1010.86
2023-05-21T02:15:04.892Z,1010.86
2023-05-21T02:16:04.865Z,1010.84
2023-05-21T02:17:04.865Z,1010.84
2023-05-21T02:18:04.883Z,1010.78
2023-05-21T02:19:04.923Z,1010.80
2023-05-21T02:20:04.819Z,1010.86
2023-05-21T02:21:04.809Z,1010.84
2023-05-21T02:22:04.813Z,1010.85
2023-05-21T02:23:04.785Z,1010.83
2023-05-21T02:24:04.780Z,1010.88
2023-05-21T02:25:04.786Z,1010.94
2023-05-21T02:26:04.764Z,1010.85
2023-05-21T02:27:04.749Z,1010.91
2023-05-21T02:28:04.742Z,1010.91
2023-05-21T02:29:04.729Z,1010.89
2023-05-21T02:30:04.755Z,1010.85
2023-05-21T02:31:04.700Z,1010.89
2023-05-21T02:32:04.697Z,1010.88
2023-05-21T02:33:04.769Z,1010.85
2023-05-21T02:34:04.741Z,1010.83
2023-05-21T02:35:04.684Z,1010.89
2023-05-21T02:36:04.645Z,1010.86
2023-05-21T02:37:04.631Z,1010.86
2023-05-21T02:38:04.622Z,1010.84
2023-05-21T02:39:04.613Z,1010.82
2023-05-21T02:40:04.627Z,1010.83
2023-05-21T02:41:04.597Z,1010.84
2023-05-21T02:42:04.581Z,1010.83
2023-05-21T02:43:04.566Z,1010.83
2023-05-21T02:44:04.574Z,1010.85
2023-05-21T02:45:04.583Z,1010.84
2023-05-21T02:46:04.576Z,1010.83
2023-05-21T02:47:04.527Z,1010.81
2023-05-21T02:48:04.580Z,1010.83
2023-05-21T02:49:04.494Z,1010.84
2023-05-21T02:50:04.522Z,1010.81
2023-05-21T02:51:04.504Z,1010.80
2023-05-21T02:52:04.467Z,1010.81
2023-05-21T02:53:04.457Z,1010.76
2023-05-21T02:54:04.447Z,1010.71
2023-05-21T02:55:04.433Z,1010.76
2023-05-21T02:56:04.419Z,1010.68
2023-05-21T02:57:04.437Z,1010.68
2023-05-21T02:58:04.396Z,1010.70
2023-05-21T02:59:04.378Z,1010.65
2023-05-21T03:00:04.374Z,1010.67
2023-05-21T03:01:04.397Z,1010.67
2023-05-21T03:02:04.421Z,1010.64
2023-05-21T03:03:04.433Z,1010.69
2023-05-21T03:04:04.322Z,1010.63
2023-05-21T03:05:04.318Z,1010.67
2023-05-21T03:06:04.355Z,1010.64
2023-05-21T03:07:04.291Z,1010.67
2023-05-21T03:08:04.320Z,1010.63
2023-05-21T03:09:04.270Z,1010.66
2023-05-21T03:10:04.267Z,1010.64
2023-05-21T03:11:04.246Z,1010.67
2023-05-21T03:12:04.252Z,1010.66
2023-05-21T03:13:04.243Z,1010.68
2023-05-21T03:14:04.264Z,1010.65
2023-05-21T03:15:04.206Z,1010.61
2023-05-21T03:16:04.192Z,1010.63
2023-05-21T03:17:04.213Z,1010.65
2023-05-21T03:18:04.198Z,1010.62
2023-05-21T03:19:04.223Z,1010.59
2023-05-21T03:20:04.179Z,1010.58
2023-05-21T03:21:04.137Z,1010.64
2023-05-21T03:22:04.170Z,1010.60
2023-05-21T03:23:04.119Z,1010.65
2023-05-21T03:24:18.747Z,1010.64
2023-05-21T03:25:04.121Z,1010.66
2023-05-21T03:26:04.089Z,1010.65
2023-05-21T03:27:04.078Z,1010.67
2023-05-21T03:28:04.069Z,1010.66
2023-05-21T03:29:04.049Z,1010.63
2023-05-21T03:30:06.024Z,1010.60
2023-05-21T03:31:04.058Z,1010.58
2023-05-21T03:32:04.075Z,1010.58
2023-05-21T03:33:04.060Z,1010.57
2023-05-21T03:34:03.999Z,1010.55
2023-05-21T03:35:03.985Z,1010.58
2023-05-21T03:36:03.978Z,1010.60
2023-05-21T03:37:03.989Z,1010.58
2023-05-21T03:38:03.964Z,1010.61
2023-05-21T03:39:03.943Z,1010.61
2023-05-21T03:40:03.937Z,1010.63
2023-05-21T03:41:03.941Z,1010.63
2023-05-21T03:42:03.937Z,1010.62
2023-05-21T03:43:03.909Z,1010.62
2023-05-21T03:44:03.883Z,1010.68
2023-05-21T03:45:03.873Z,1010.62
2023-05-21T03:46:03.893Z,1010.61
2023-05-21T03:47:03.865Z,1010.64
2023-05-21T03:48:03.874Z,1010.65
2023-05-21T03:49:03.842Z,1010.65
2023-05-21T03:50:03.826Z,1010.61
2023-05-21T03:51:03.832Z,1010.61
2023-05-21T03:52:03.805Z,1010.63
2023-05-21T03:53:03.792Z,1010.66
2023-05-21T03:54:03.777Z,1010.64
2023-05-21T03:55:03.788Z,1010.62
2023-05-21T03:56:03.770Z,1010.64
2023-05-21T03:57:03.749Z,1010.61
2023-05-21T03:58:03.725Z,1010.63
2023-05-21T03:59:03.723Z,1010.65
2023-05-21T04:00:03.711Z,1010.61
2023-05-21T04:01:03.708Z,1010.67
2023-05-21T04:02:03.737Z,1010.65
2023-05-21T04:03:03.744Z,1010.67
2023-05-21T04:04:03.750Z,1010.70
2023-05-21T04:05:03.661Z,1010.64
2023-05-21T04:06:03.640Z,1010.63
2023-05-21T04:07:03.631Z,1010.63
2023-05-21T04:08:03.652Z,1010.63
2023-05-21T04:09:03.607Z,1010.65
2023-05-21T04:10:03.621Z,1010.62
2023-05-21T04:11:03.591Z,1010.66
2023-05-21T04:12:03.572Z,1010.64
2023-05-21T04:13:03.595Z,1010.62
2023-05-21T04:14:03.558Z,1010.65
2023-05-21T04:15:03.548Z,1010.68
2023-05-21T04:16:03.559Z,1010.64
2023-05-21T04:17:03.519Z,1010.65
2023-05-21T04:18:03.563Z,1010.68
2023-05-21T04:19:03.582Z,1010.68
2023-05-21T04:20:03.490Z,1010.68
2023-05-21T04:21:03.524Z,1010.69
2023-05-21T04:22:03.462Z,1010.70
2023-05-21T04:23:03.486Z,1010.69
2023-05-21T04:24:03.441Z,1010.70
2023-05-21T04:25:03.457Z,1010.73
2023-05-21T04:26:03.420Z,1010.72
2023-05-21T04:27:03.420Z,1010.78
2023-05-21T04:28:03.423Z,1010.76
2023-05-21T04:29:03.425Z,1010.77
2023-05-21T04:30:03.377Z,1010.79
2023-05-21T04:31:03.385Z,1010.79
2023-05-21T04:32:03.373Z,1010.75
2023-05-21T04:33:03.395Z,1010.81
2023-05-21T04:34:03.350Z,1010.78
2023-05-21T04:35:03.348Z,1010.75
2023-05-21T04:36:03.307Z,1010.77
2023-05-21T04:37:03.295Z,1010.77
2023-05-21T04:38:04.312Z,1010.76
2023-05-21T04:39:03.279Z,1010.72
2023-05-21T04:40:03.294Z,1010.76
2023-05-21T04:41:03.260Z,1010.76
2023-05-21T04:42:03.283Z,1010.79
2023-05-21T04:43:03.241Z,1010.76
2023-05-21T04:44:03.226Z,1010.79
2023-05-21T04:45:03.295Z,1010.78
2023-05-21T04:46:03.195Z,1010.76
2023-05-21T04:47:09.857Z,1010.80
2023-05-21T04:48:03.202Z,1010.79
2023-05-21T04:49:03.258Z,1010.78
2023-05-21T04:50:03.157Z,1010.80
2023-05-21T04:51:03.167Z,1010.77
2023-05-21T04:52:03.151Z,1010.76
2023-05-21T04:53:03.116Z,1010.77
2023-05-21T04:54:03.136Z,1010.73
2023-05-21T04:55:03.100Z,1010.72
2023-05-21T04:56:03.090Z,1010.72
2023-05-21T04:57:03.098Z,1010.70
2023-05-21T04:58:03.065Z,1010.69
2023-05-21T04:59:05.191Z,1010.71
2023-05-21T05:00:03.093Z,1010.73
2023-05-21T05:01:03.235Z,1010.68
2023-05-21T05:02:03.031Z,1010.65
2023-05-21T05:03:03.097Z,1010.60
2023-05-21T05:04:03.075Z,1010.64
2023-05-21T05:05:02.989Z,1010.64
2023-05-21T05:06:02.969Z,1010.61
2023-05-21T05:07:02.986Z,1010.65
2023-05-21T05:08:02.953Z,1010.65
2023-05-21T05:09:02.967Z,1010.62
2023-05-21T05:10:02.932Z,1010.56
2023-05-21T05:11:02.914Z,1010.62
2023-05-21T05:12:02.904Z,1010.59
2023-05-21T05:13:02.896Z,1010.57
2023-05-21T05:14:02.893Z,1010.56
2023-05-21T05:15:02.902Z,1010.56
2023-05-21T05:16:02.891Z,1010.62
2023-05-21T05:17:02.871Z,1010.64
2023-05-21T05:18:02.857Z,1010.62
2023-05-21T05:19:02.900Z,1010.59
2023-05-21T05:20:02.862Z,1010.61
2023-05-21T05:21:02.827Z,1010.62
2023-05-21T05:22:02.808Z,1010.63
2023-05-21T05:23:02.817Z,1010.58
2023-05-21T05:24:02.771Z,1010.55
2023-05-21T05:25:02.790Z,1010.56
2023-05-21T05:26:02.748Z,1010.56
2023-05-21T05:27:02.755Z,1010.51
2023-05-21T05:28:02.736Z,1010.55
2023-05-21T05:29:02.733Z,1010.48
2023-05-21T05:30:02.710Z,1010.50
2023-05-21T05:31:02.768Z,1010.48
2023-05-21T05:32:02.680Z,1010.42
2023-05-21T05:33:02.698Z,1010.48
2023-05-21T05:34:02.675Z,1010.53
2023-05-21T05:35:02.748Z,1010.48
2023-05-21T05:36:02.641Z,1010.49
2023-05-21T05:37:02.657Z,1010.46
2023-05-21T05:38:02.619Z,1010.52
2023-05-21T05:39:02.662Z,1010.50
2023-05-21T05:40:02.593Z,1010.52
2023-05-21T05:41:02.604Z,1010.51
2023-05-21T05:42:02.603Z,1010.50
2023-05-21T05:43:02.574Z,1010.48
2023-05-21T05:44:02.550Z,1010.44
2023-05-21T05:45:02.541Z,1010.44
2023-05-21T05:46:02.574Z,1010.42
2023-05-21T05:47:02.516Z,1010.41
2023-05-21T05:48:03.224Z,1010.44
2023-05-21T05:49:02.508Z,1010.40
2023-05-21T05:50:02.496Z,1010.41
2023-05-21T05:51:02.486Z,1010.35
2023-05-21T05:52:02.487Z,1010.42
2023-05-21T05:53:02.472Z,1010.39
2023-05-21T05:54:02.437Z,1010.38
2023-05-21T05:55:02.422Z,1010.37
2023-05-21T05:56:02.422Z,1010.39
2023-05-21T05:57:02.428Z,1010.38
2023-05-21T05:58:02.389Z,1010.38
2023-05-21T05:59:02.397Z,1010.37
2023-05-21T06:00:02.373Z,1010.33
2023-05-21T06:01:02.366Z,1010.30
2023-05-21T06:02:02.377Z,1010.31
2023-05-21T06:03:02.409Z,1010.27
2023-05-21T06:04:02.331Z,1010.25
2023-05-21T06:05:02.333Z,1010.23
2023-05-21T06:06:02.383Z,1010.22
2023-05-21T06:07:02.298Z,1010.20
2023-05-21T06:08:02.302Z,1010.23
2023-05-21T06:09:02.270Z,1010.24
2023-05-21T06:10:02.263Z,1010.25
2023-05-21T06:11:02.246Z,1010.22
2023-05-21T06:12:02.251Z,1010.28
2023-05-21T06:13:02.233Z,1010.22
2023-05-21T06:14:02.252Z,1010.27
2023-05-21T06:15:02.213Z,1010.26
2023-05-21T06:16:02.270Z,1010.30
2023-05-21T06:17:02.194Z,1010.33
2023-05-21T06:18:02.197Z,1010.34
2023-05-21T06:19:02.261Z,1010.32
2023-05-21T06:20:02.169Z,1010.27
2023-05-21T06:21:02.159Z,1010.28
2023-05-21T06:22:02.138Z,1010.29
2023-05-21T06:23:02.129Z,1010.29
2023-05-21T06:24:02.096Z,1010.30
2023-05-21T06:25:02.088Z,1010.35
2023-05-21T06:26:02.100Z,1010.33
2023-05-21T06:27:02.152Z,1010.29
2023-05-21T06:28:02.054Z,1010.31
2023-05-21T06:29:02.051Z,1010.30
2023-05-21T06:30:02.048Z,1010.28
2023-05-21T06:31:02.048Z,1010.29
2023-05-21T06:32:02.039Z,1010.33
2023-05-21T06:33:02.074Z,1010.35
2023-05-21T06:34:02.289Z,1010.37
2023-05-21T06:35:01.979Z,1010.37
2023-05-21T06:36:01.966Z,1010.40
2023-05-21T06:37:01.955Z,1010.41
2023-05-21T06:38:01.973Z,1010.43
2023-05-21T06:39:01.939Z,1010.43
2023-05-21T06:40:01.925Z,1010.40
2023-05-21T06:41:01.914Z,1010.41
2023-05-21T06:42:01.899Z,1010.44
2023-05-21T06:43:01.896Z,1010.39
2023-05-21T06:44:01.908Z,1010.38
2023-05-21T06:45:01.874Z,1010.38
2023-05-21T06:46:01.874Z,1010.32
2023-05-21T06:47:01.847Z,1010.30
2023-05-21T06:48:01.935Z,1010.33
2023-05-21T06:49:01.826Z,1010.27
2023-05-21T06:50:01.841Z,1010.32
2023-05-21T06:51:01.817Z,1010.32
2023-05-21T06:52:01.792Z,1010.31
2023-05-21T06:53:01.777Z,1010.31
2023-05-21T06:54:01.772Z,1010.33
2023-05-21T06:55:01.813Z,1010.34
2023-05-21T06:56:01.748Z,1010.30
2023-05-21T06:57:01.735Z,1010.29
2023-05-21T06:58:01.723Z,1010.26
2023-05-21T06:59:01.713Z,1010.27
2023-05-21T07:00:01.705Z,1010.28
2023-05-21T07:01:01.850Z,1010.26
2023-05-21T07:02:04.388Z,1010.29
2023-05-21T07:03:01.735Z,1010.24
2023-05-21T07:04:01.654Z,1010.26
2023-05-21T07:05:01.643Z,1010.23
2023-05-21T07:06:01.669Z,1010.26
2023-05-21T07:07:01.619Z,1010.20
2023-05-21T07:08:01.602Z,1010.20
2023-05-21T07:09:02.238Z,1010.21
2023-05-21T07:10:01.623Z,1010.22
2023-05-21T07:11:01.582Z,1010.25
2023-05-21T07:12:01.590Z,1010.25
2023-05-21T07:13:01.558Z,1010.25
2023-05-21T07:14:01.539Z,1010.22
2023-05-21T07:15:01.577Z,1010.21
2023-05-21T07:16:01.521Z,1010.23
2023-05-21T07:17:01.585Z,1010.22
2023-05-21T07:18:01.534Z,1010.23
2023-05-21T07:19:01.552Z,1010.16
2023-05-21T07:20:01.476Z,1010.18
2023-05-21T07:21:01.464Z,1010.18
2023-05-21T07:22:01.478Z,1010.17
2023-05-21T07:23:01.446Z,1010.15
2023-05-21T07:24:01.439Z,1010.18
2023-05-21T07:25:01.415Z,1010.21
2023-05-21T07:26:01.413Z,1010.24
2023-05-21T07:27:03.164Z,1010.22
2023-05-21T07:28:01.406Z,1010.24
2023-05-21T07:29:01.379Z,1010.27
2023-05-21T07:30:01.405Z,1010.23
2023-05-21T07:31:01.380Z,1010.23
2023-05-21T07:32:01.338Z,1010.23
2023-05-21T07:33:01.431Z,1010.25
2023-05-21T07:34:01.332Z,1010.29
2023-05-21T07:35:01.320Z,1010.25
2023-05-21T07:36:01.292Z,1010.21
2023-05-21T07:37:01.285Z,1010.25
2023-05-21T07:38:01.328Z,1010.25
2023-05-21T07:39:01.280Z,1010.29
2023-05-21T07:40:01.296Z,1010.28
2023-05-21T07:41:01.241Z,1010.29
2023-05-21T07:42:01.233Z,1010.27
2023-05-21T07:43:01.243Z,1010.28
2023-05-21T07:44:01.248Z,1010.28
2023-05-21T07:45:01.245Z,1010.27
2023-05-21T07:46:01.212Z,1010.27
2023-05-21T07:47:01.172Z,1010.27
2023-05-21T07:48:01.259Z,1010.21
2023-05-21T07:49:01.179Z,1010.27
2023-05-21T07:50:01.141Z,1010.25
2023-05-21T07:51:01.131Z,1010.25
2023-05-21T07:52:01.150Z,1010.29
2023-05-21T07:53:01.160Z,1010.34
2023-05-21T07:54:01.180Z,1010.31
2023-05-21T07:55:01.124Z,1010.34
2023-05-21T07:56:01.172Z,1010.33
2023-05-21T07:57:01.065Z,1010.37
2023-05-21T07:58:01.068Z,1010.35
2023-05-21T07:59:01.043Z,1010.38
2023-05-21T08:00:01.058Z,1010.34
2023-05-21T08:01:01.036Z,1010.35
2023-05-21T08:02:01.013Z,1010.35
2023-05-21T08:03:01.066Z,1010.36
2023-05-21T08:04:01.155Z,1010.30
2023-05-21T08:05:01.006Z,1010.34
2023-05-21T08:06:00.997Z,1010.33
2023-05-21T08:07:00.965Z,1010.34
2023-05-21T08:08:00.945Z,1010.31
2023-05-21T08:09:00.931Z,1010.30
2023-05-21T08:10:02.659Z,1010.29
2023-05-21T08:11:00.934Z,1010.35
2023-05-21T08:12:00.909Z,1010.37
2023-05-21T08:13:00.881Z,1010.33
2023-05-21T08:14:00.886Z,1010.34
2023-05-21T08:15:00.868Z,1010.33
2023-05-21T08:16:00.901Z,1010.32
2023-05-21T08:17:00.874Z,1010.38
2023-05-21T08:18:00.886Z,1010.31
2023-05-21T08:19:00.869Z,1010.37
2023-05-21T08:20:00.814Z,1010.37
2023-05-21T08:21:00.796Z,1010.42
2023-05-21T08:22:00.811Z,1010.43
2023-05-21T08:23:00.781Z,1010.37
2023-05-21T08:24:00.781Z,1010.33
2023-05-21T08:25:00.761Z,1010.37
2023-05-21T08:26:00.738Z,1010.38
2023-05-21T08:27:00.753Z,1010.32
2023-05-21T08:28:00.725Z,1010.28
2023-05-21T08:29:00.737Z,1010.30
2023-05-21T08:30:00.784Z,1010.26
2023-05-21T08:31:00.758Z,1010.31
2023-05-21T08:32:00.730Z,1010.29
2023-05-21T08:33:00.726Z,1010.26
2023-05-21T08:34:00.709Z,1010.27
2023-05-21T08:35:00.768Z,1010.26
2023-05-21T08:36:00.664Z,1010.22
2023-05-21T08:37:00.627Z,1010.20
2023-05-21T08:38:00.663Z,1010.19
2023-05-21T08:39:00.593Z,1010.24
2023-05-21T08:40:00.626Z,1010.16
2023-05-21T08:41:00.587Z,1010.21
2023-05-21T08:42:00.577Z,1010.22
2023-05-21T08:43:00.554Z,1010.17
2023-05-21T08:44:00.556Z,1010.19
2023-05-21T08:45:00.549Z,1010.16
2023-05-21T08:46:00.605Z,1010.12
2023-05-21T08:47:00.518Z,1010.15
2023-05-21T08:48:00.573Z,1010.16
2023-05-21T08:49:00.517Z,1010.17
2023-05-21T08:50:00.487Z,1010.20
2023-05-21T08:51:00.460Z,1010.19
2023-05-21T08:52:00.475Z,1010.17
2023-05-21T08:53:00.445Z,1010.16
2023-05-21T08:54:00.458Z,1010.12
2023-05-21T08:55:00.420Z,1010.14
2023-05-21T08:56:00.421Z,1010.12
2023-05-21T08:57:00.405Z,1010.14
2023-05-21T08:58:00.405Z,1010.07
2023-05-21T08:59:00.398Z,1010.11
2023-05-21T09:00:00.376Z,1010.06
2023-05-21T09:01:00.497Z,1010.06
2023-05-21T09:02:00.410Z,1010.04
2023-05-21T09:03:00.419Z,1010.03
2023-05-21T09:04:12.223Z,1010.00
2023-05-21T09:05:00.313Z,1010.03
2023-05-21T09:06:00.302Z,1010.04
2023-05-21T09:07:00.286Z,1010.01
2023-05-21T09:08:00.306Z,1010.00
2023-05-21T09:09:00.271Z,1010.00
2023-05-21T09:10:00.260Z,1010.05
2023-05-21T09:11:00.247Z,1010.00
2023-05-21T09:12:00.249Z,1010.08
2023-05-21T09:13:00.230Z,1010.05
2023-05-21T09:14:00.241Z,1010.05
2023-05-21T09:15:00.198Z,1010.01
2023-05-21T09:16:00.194Z,1010.02
2023-05-21T09:17:00.301Z,1010.00
2023-05-21T09:18:00.223Z,1010.01
2023-05-21T09:19:01.681Z,1009.95
2023-05-21T09:20:00.182Z,1009.99
2023-05-21T09:21:00.145Z,1010.02
2023-05-21T09:22:00.137Z,1009.99
2023-05-21T09:23:00.130Z,1010.01
2023-05-21T09:24:00.138Z,1009.94
2023-05-21T09:25:00.086Z,1009.92
2023-05-21T09:26:00.093Z,1009.92
2023-05-21T09:27:00.131Z,1009.88
2023-05-21T09:28:00.048Z,1009.87
2023-05-21T09:29:00.076Z,1009.85
2023-05-21T09:30:00.040Z,1009.89
2023-05-21T09:31:00.088Z,1009.88
2023-05-21T09:32:00.013Z,1009.90
2023-05-21T09:33:00.193Z,1009.87
2023-05-21T09:33:59.993Z,1009.92
2023-05-21T09:34:59.983Z,1009.95
2023-05-21T09:35:59.959Z,1009.93
2023-05-21T09:36:59.977Z,1009.94
2023-05-21T09:37:59.953Z,1009.97
2023-05-21T09:38:59.955Z,1009.99
2023-05-21T09:39:59.956Z,1009.96
2023-05-21T09:40:59.945Z,1009.91
2023-05-21T09:41:59.911Z,1009.95
2023-05-21T09:42:59.898Z,1009.91
2023-05-21T09:43:59.884Z,1009.94
2023-05-21T09:44:59.885Z,1009.96
2023-05-21T09:46:01.978Z,1009.97
2023-05-21T09:46:59.973Z,1009.99
2023-05-21T09:47:59.880Z,1009.92
2023-05-21T09:48:59.822Z,1009.91
2023-05-21T09:49:59.814Z,1009.93
2023-05-21T09:50:59.837Z,1009.90
2023-05-21T09:51:59.799Z,1009.90
2023-05-21T09:52:59.790Z,1009.93
2023-05-21T09:53:59.810Z,1009.91
2023-05-21T09:54:59.778Z,1009.87
2023-05-21T09:55:59.754Z,1009.91
2023-05-21T09:56:59.765Z,1009.89
2023-05-21T09:57:59.749Z,1009.93
2023-05-21T09:58:59.762Z,1009.88
2023-05-21T09:59:59.720Z,1009.88
2023-05-21T10:00:59.701Z,1009.81
2023-05-21T10:01:59.880Z,1009.84
2023-05-21T10:02:59.747Z,1009.74
2023-05-21T10:03:59.710Z,1009.80
2023-05-21T10:04:59.661Z,1009.82
2023-05-21T10:05:59.650Z,1009.77
2023-05-21T10:06:59.661Z,1009.81
2023-05-21T10:07:59.627Z,1009.79
2023-05-21T10:08:59.739Z,1009.76
2023-05-21T10:09:59.614Z,1009.77
2023-05-21T10:10:59.592Z,1009.75
2023-05-21T10:11:59.602Z,1009.75
2023-05-21T10:12:59.571Z,1009.74
2023-05-21T10:13:59.555Z,1009.76
2023-05-21T10:14:59.549Z,1009.74
2023-05-21T10:15:59.558Z,1009.73
2023-05-21T10:16:59.518Z,1009.72
2023-05-21T10:17:59.596Z,1009.72
2023-05-21T10:18:59.535Z,1009.62
2023-05-21T10:19:59.519Z,1009.63
2023-05-21T10:20:59.482Z,1009.67
2023-05-21T10:21:59.482Z,1009.65
2023-05-21T10:22:59.454Z,1009.64
2023-05-21T10:23:59.470Z,1009.61
2023-05-21T10:24:59.459Z,1009.64
2023-05-21T10:25:59.423Z,1009.58
2023-05-21T10:26:59.413Z,1009.57
2023-05-21T10:27:59.409Z,1009.53
2023-05-21T10:28:59.386Z,1009.55
2023-05-21T10:29:59.409Z,1009.52
2023-05-21T10:30:59.370Z,1009.52
2023-05-21T10:31:59.393Z,1009.54
2023-05-21T10:32:59.493Z,1009.55
2023-05-21T10:33:59.338Z,1009.53
2023-05-21T10:35:00.787Z,1009.48
2023-05-21T10:35:59.351Z,1009.49
2023-05-21T10:36:59.307Z,1009.45
2023-05-21T10:37:59.296Z,1009.38
2023-05-21T10:38:59.280Z,1009.34
2023-05-21T10:39:59.305Z,1009.36
2023-05-21T10:40:59.250Z,1009.29
2023-05-21T10:41:59.335Z,1009.34
2023-05-21T10:42:59.279Z,1009.31
2023-05-21T10:43:59.225Z,1009.34
2023-05-21T10:44:59.217Z,1009.31
2023-05-21T10:45:59.240Z,1009.34
2023-05-21T10:46:59.234Z,1009.34
2023-05-21T10:47:59.270Z,1009.36
2023-05-21T10:48:59.181Z,1009.29
2023-05-21T10:49:59.163Z,1009.33
2023-05-21T10:51:06.365Z,1009.30
2023-05-21T10:51:59.149Z,1009.24
2023-05-21T10:52:59.175Z,1009.29
2023-05-21T10:53:59.138Z,1009.24
2023-05-21T10:54:59.118Z,1009.24
2023-05-21T10:55:59.100Z,1009.28
2023-05-21T10:56:59.096Z,1009.27
2023-05-21T10:57:59.083Z,1009.20
2023-05-21T10:58:59.095Z,1009.18
2023-05-21T10:59:59.071Z,1009.19
2023-05-21T11:00:59.080Z,1009.19
2023-05-21T11:01:59.039Z,1009.20
2023-05-21T11:02:59.107Z,1009.16
2023-05-21T11:03:59.051Z,1009.19
2023-05-21T11:04:59.026Z,1009.14
2023-05-21T11:05:58.996Z,1009.10
2023-05-21T11:06:59.026Z,1009.14
2023-05-21T11:07:58.975Z,1009.10
2023-05-21T11:08:58.965Z,1009.13
2023-05-21T11:09:58.977Z,1009.10
2023-05-21T11:10:58.970Z,1009.12
2023-05-21T11:11:58.959Z,1009.16
2023-05-21T11:12:58.916Z,1009.17
2023-05-21T11:13:58.905Z,1009.23
2023-05-21T11:14:58.902Z,1009.21
2023-05-21T11:15:58.906Z,1009.16
2023-05-21T11:16:58.927Z,1009.21
2023-05-21T11:17:58.899Z,1009.15
2023-05-21T11:18:58.907Z,1009.15
2023-05-21T11:19:58.846Z,1009.09
2023-05-21T11:20:58.835Z,1009.12
2023-05-21T11:21:58.821Z,1009.10
2023-05-21T11:22:58.813Z,1009.08
2023-05-21T11:23:58.860Z,1009.11
2023-05-21T11:24:58.784Z,1009.07
2023-05-21T11:25:58.784Z,1009.05
2023-05-21T11:26:58.768Z,1009.02
2023-05-21T11:27:58.766Z,1009.05
2023-05-21T11:28:58.750Z,1009.03
2023-05-21T11:29:58.763Z,1009.03
2023-05-21T11:30:58.784Z,1009.01
2023-05-21T11:31:58.729Z,1008.96
2023-05-21T11:32:58.774Z,1008.94
2023-05-21T11:33:58.693Z,1008.93
2023-05-21T11:34:58.705Z,1008.96
2023-05-21T11:35:58.679Z,1008.94
2023-05-21T11:36:58.664Z,1008.96
2023-05-21T11:37:58.653Z,1008.93
2023-05-21T11:38:58.643Z,1008.92
2023-05-21T11:39:58.659Z,1008.98
2023-05-21T11:40:58.638Z,1008.99
2023-05-21T11:41:59.461Z,1008.97
2023-05-21T11:42:58.595Z,1009.00
2023-05-21T11:43:58.601Z,1008.96
2023-05-21T11:44:58.625Z,1008.97
2023-05-21T11:45:58.573Z,1008.99
2023-05-21T11:46:58.622Z,1008.99
2023-05-21T11:47:58.645Z,1009.01
2023-05-21T11:48:58.534Z,1009.02
2023-05-21T11:49:58.529Z,1008.97
2023-05-21T11:50:58.597Z,1008.99
2023-05-21T11:51:58.499Z,1008.97
2023-05-21T11:52:58.492Z,1008.97
2023-05-21T11:53:58.477Z,1008.99
2023-05-21T11:54:58.466Z,1009.00
2023-05-21T11:55:58.494Z,1009.05
2023-05-21T11:56:58.452Z,1009.02
2023-05-21T11:57:58.439Z,1009.02
2023-05-21T11:58:58.424Z,1009.02
2023-05-21T11:59:58.427Z,1009.08
2023-05-21T12:00:58.406Z,1009.03
2023-05-21T12:01:58.414Z,1008.97
2023-05-21T12:02:58.512Z,1008.99
2023-05-21T12:03:58.450Z,1008.98
2023-05-21T12:04:58.360Z,1008.97